createdAt,value
2022-11-03T00:01:39.855Z,7.60
2022-11-03T00:04:09.335Z,6.47
2022-11-03T00:06:38.026Z,7.13
2022-11-03T00:09:08.439Z,7.30
2022-11-03T00:11:37.520Z,6.50
2022-11-03T00:14:05.670Z,6.80
2022-11-03T00:16:34.176Z,7.78
2022-11-03T00:19:03.734Z,6.07
2022-11-03T00:21:31.480Z,6.22
2022-11-03T00:23:59.520Z,6.47
2022-11-03T00:26:28.831Z,6.32
2022-11-03T00:29:00.479Z,7.07
2022-11-03T00:31:29.885Z,5.90
2022-11-03T00:33:58.646Z,6.22
2022-11-03T00:36:29.375Z,6.68
2022-11-03T00:38:57.526Z,6.15
2022-11-03T00:41:26.659Z,6.47
2022-11-03T00:43:55.645Z,5.45
2022-11-03T00:46:25.317Z,7.25
2022-11-03T00:48:53.042Z,6.50
2022-11-03T00:51:23.064Z,6.40
2022-11-03T00:53:55.110Z,6.55
2022-11-03T00:56:24.514Z,6.30
2022-11-03T00:58:53.442Z,6.75
2022-11-03T01:01:22.962Z,7.10
2022-11-03T01:04:06.266Z,7.07
2022-11-03T01:06:53.846Z,6.57
2022-11-03T01:09:24.843Z,6.75
2022-11-03T01:11:57.574Z,7.03
2022-11-03T01:14:27.062Z,6.90
2022-11-03T01:16:54.791Z,7.35
2022-11-03T01:19:22.693Z,7.45
2022-11-03T01:21:50.465Z,7.38
2022-11-03T01:24:18.378Z,6.90
2022-11-03T01:26:48.064Z,7.40
2022-11-03T01:29:16.249Z,7.45
2022-11-03T01:31:44.252Z,7.50
2022-11-03T01:34:16.324Z,7.70
2022-11-03T01:36:44.685Z,7.40
2022-11-03T01:39:13.227Z,8.18
2022-11-03T01:41:41.713Z,7.43
2022-11-03T01:44:30.407Z,7.35
2022-11-03T01:47:04.207Z,6.93
2022-11-03T01:49:37.005Z,6.90
2022-11-03T01:52:10.610Z,7.25
2022-11-03T01:54:40.236Z,7.82
2022-11-03T01:57:12.222Z,6.50
2022-11-03T01:59:42.156Z,6.32
2022-11-03T02:02:10.351Z,6.72
2022-11-03T02:04:38.603Z,6.78
2022-11-03T02:07:16.581Z,6.45
2022-11-03T02:09:44.407Z,7.03
2022-11-03T02:12:13.101Z,6.22
2022-11-03T02:14:46.742Z,6.53
2022-11-03T02:17:15.459Z,7.38
2022-11-03T02:19:46.894Z,5.70
2022-11-03T02:22:36.492Z,6.45
2022-11-03T02:25:15.263Z,5.68
2022-11-03T02:27:44.934Z,5.35
2022-11-03T02:30:13.146Z,5.50
2022-11-03T02:32:49.302Z,5.60
2022-11-03T02:35:23.696Z,5.88
2022-11-03T02:37:55.782Z,6.00
2022-11-03T02:40:29.124Z,6.20
2022-11-03T02:43:00.171Z,5.72
2022-11-03T02:45:29.609Z,5.82
2022-11-03T02:48:00.464Z,5.90
2022-11-03T02:50:29.412Z,5.20
2022-11-03T02:52:58.497Z,6.68
2022-11-03T02:55:35.126Z,6.55
2022-11-03T02:58:11.513Z,6.53
2022-11-03T03:00:47.594Z,6.47
2022-11-03T03:03:22.039Z,5.63
2022-11-03T03:05:54.031Z,5.75
2022-11-03T03:08:24.928Z,5.70
2022-11-03T03:10:54.365Z,5.40
2022-11-03T03:13:25.401Z,5.15
2022-11-03T03:16:05.754Z,5.05
2022-11-03T03:18:48.902Z,5.10
2022-11-03T03:21:21.956Z,4.63
2022-11-03T03:23:53.477Z,3.90
2022-11-03T03:26:26.339Z,5.63
2022-11-03T03:28:59.376Z,4.90
2022-11-03T03:31:29.670Z,4.78
2022-11-03T03:34:04.357Z,4.80
2022-11-03T03:36:34.455Z,5.53
2022-11-03T03:39:05.204Z,5.18
2022-11-03T03:41:34.125Z,5.15
2022-11-03T03:44:07.586Z,5.00
2022-11-03T03:46:38.903Z,5.07
2022-11-03T03:49:07.356Z,5.10
2022-11-03T03:51:36.389Z,5.55
2022-11-03T03:54:04.276Z,5.60
2022-11-03T03:56:36.738Z,4.88
2022-11-03T03:59:05.724Z,5.97
2022-11-03T04:01:33.488Z,5.78
2022-11-03T04:04:01.356Z,6.00
2022-11-03T04:06:29.174Z,5.25
2022-11-03T04:08:57.109Z,6.70
2022-11-03T04:11:42.606Z,7.20
2022-11-03T04:14:29.125Z,6.53
2022-11-03T04:17:14.613Z,6.97
2022-11-03T04:20:00.215Z,7.07
2022-11-03T04:22:30.671Z,6.55
2022-11-03T04:24:59.299Z,6.43
2022-11-03T04:27:32.402Z,7.57
2022-11-03T04:30:14.310Z,7.60
2022-11-03T04:32:42.351Z,7.18
2022-11-03T04:35:17.956Z,6.80
2022-11-03T04:37:47.802Z,5.75
2022-11-03T04:40:17.510Z,6.55
2022-11-03T04:42:46.140Z,5.88
2022-11-03T04:45:23.866Z,7.00
2022-11-03T04:47:53.206Z,6.25
2022-11-03T04:50:22.499Z,5.78
2022-11-03T04:52:56.132Z,5.80
2022-11-03T04:55:23.943Z,6.38
2022-11-03T04:57:56.134Z,6.50
2022-11-03T05:00:25.240Z,5.80
2022-11-03T05:02:56.132Z,6.75
2022-11-03T05:05:25.818Z,6.78
2022-11-03T05:07:55.553Z,6.85
2022-11-03T05:10:27.128Z,7.35
2022-11-03T05:12:55.738Z,7.15
2022-11-03T05:15:35.444Z,7.30
2022-11-03T05:18:15.146Z,8.73
2022-11-03T05:20:50.299Z,7.68
2022-11-03T05:23:20.227Z,8.35
2022-11-03T05:25:50.560Z,6.90
2022-11-03T05:28:24.092Z,6.65
2022-11-03T05:30:53.935Z,7.40
2022-11-03T05:33:29.287Z,7.80
2022-11-03T05:36:00.624Z,7.97
2022-11-03T05:38:32.096Z,8.02
2022-11-03T05:41:00.602Z,8.57
2022-11-03T05:43:29.708Z,7.25
2022-11-03T05:46:02.791Z,6.85
2022-11-03T05:48:34.940Z,7.57
2022-11-03T05:51:11.011Z,7.72
2022-11-03T05:53:43.195Z,6.30
2022-11-03T05:56:17.615Z,6.80
2022-11-03T05:58:46.679Z,6.88
2022-11-03T06:01:20.862Z,6.93
2022-11-03T06:03:48.920Z,7.20
2022-11-03T06:06:21.648Z,6.90
2022-11-03T06:08:49.910Z,6.93
2022-11-03T06:11:28.927Z,7.38
2022-11-03T06:13:58.516Z,7.55
2022-11-03T06:16:38.571Z,8.15
2022-11-03T06:19:20.106Z,7.65
2022-11-03T06:21:49.102Z,6.68
2022-11-03T06:24:18.900Z,6.57
2022-11-03T06:26:48.641Z,5.78
2022-11-03T06:29:18.240Z,6.22
2022-11-03T06:31:49.529Z,6.47
2022-11-03T06:34:30.689Z,5.60
2022-11-03T06:37:02.660Z,6.10
2022-11-03T06:39:30.312Z,5.75
2022-11-03T06:41:58.040Z,6.18
2022-11-03T06:44:28.416Z,5.57
2022-11-03T06:47:00.981Z,6.95
2022-11-03T06:49:31.747Z,6.93
2022-11-03T06:52:03.432Z,5.85
2022-11-03T06:54:31.187Z,6.05
2022-11-03T06:56:58.907Z,6.00
2022-11-03T06:59:26.661Z,5.40
2022-11-03T07:01:57.914Z,5.57
2022-11-03T07:04:29.060Z,6.38
2022-11-03T07:06:59.099Z,5.47
2022-11-03T07:09:27.261Z,6.55
2022-11-03T07:11:58.312Z,5.90
2022-11-03T07:14:28.917Z,5.80
2022-11-03T07:17:01.436Z,6.20
2022-11-03T07:19:33.469Z,7.25
2022-11-03T07:22:03.650Z,5.70
2022-11-03T07:24:33.465Z,6.88
2022-11-03T07:27:07.752Z,6.80
2022-11-03T07:29:35.677Z,6.82
2022-11-03T07:32:14.039Z,6.80
2022-11-03T07:34:41.917Z,7.97
2022-11-03T07:37:15.894Z,6.55
2022-11-03T07:39:43.702Z,6.43
2022-11-03T07:42:16.716Z,7.13
2022-11-03T07:44:44.520Z,7.60
2022-11-03T07:47:17.056Z,7.25
2022-11-03T07:49:45.854Z,6.80
2022-11-03T07:52:16.085Z,7.47
2022-11-03T07:54:44.102Z,7.00
2022-11-03T07:57:16.950Z,7.22
2022-11-03T07:59:46.368Z,7.03
2022-11-03T08:02:30.928Z,6.30
2022-11-03T08:04:59.234Z,6.93
2022-11-03T08:07:28.002Z,6.70
2022-11-03T08:09:55.974Z,6.63
2022-11-03T08:12:24.130Z,5.68
2022-11-03T08:14:55.822Z,7.35
2022-11-03T08:17:24.873Z,5.72
2022-11-03T08:19:53.461Z,6.23
2022-11-03T08:22:21.175Z,5.40
2022-11-03T08:24:49.144Z,4.77
2022-11-03T08:27:17.355Z,5.80
2022-11-03T08:29:45.106Z,5.50
2022-11-03T08:32:12.776Z,5.63
2022-11-03T08:34:41.846Z,5.33
2022-11-03T08:37:09.506Z,5.70
2022-11-03T08:39:37.184Z,5.57
2022-11-03T08:42:04.945Z,5.57
2022-11-03T08:44:32.617Z,5.60
2022-11-03T08:47:00.397Z,5.87
2022-11-03T08:49:28.369Z,4.50
2022-11-03T08:51:57.448Z,4.57
2022-11-03T08:54:25.124Z,4.83
2022-11-03T08:56:52.893Z,4.00
2022-11-03T08:59:20.612Z,4.70
2022-11-03T09:01:48.322Z,3.80
2022-11-03T09:04:16.075Z,4.30
2022-11-03T09:06:43.739Z,4.80
2022-11-03T09:12:00.456Z,4.73
2022-11-03T09:14:28.207Z,4.90
2022-11-03T09:16:56.059Z,3.90
2022-11-03T09:19:23.833Z,3.63
2022-11-03T09:21:52.316Z,3.50
2022-11-03T09:24:21.657Z,3.97
2022-11-03T09:26:49.328Z,3.57
2022-11-03T09:29:17.018Z,3.17
2022-11-03T09:31:45.193Z,2.73
2022-11-03T09:34:13.845Z,2.50
2022-11-03T09:36:41.678Z,2.50
2022-11-03T09:39:09.473Z,2.77
2022-11-03T09:41:58.149Z,2.63
2022-11-03T09:44:26.991Z,2.80
2022-11-03T09:46:58.262Z,3.60
2022-11-03T09:49:27.372Z,4.03
2022-11-03T09:51:56.729Z,3.03
2022-11-03T09:54:24.591Z,2.77
2022-11-03T09:56:53.717Z,3.73
2022-11-03T09:59:23.455Z,3.33
2022-11-03T10:01:53.840Z,4.00
2022-11-03T10:04:28.012Z,3.53
2022-11-03T10:06:56.588Z,3.77
2022-11-03T10:09:25.486Z,3.27
2022-11-03T10:11:57.071Z,3.33
2022-11-03T10:14:25.257Z,3.30
2022-11-03T10:16:57.065Z,4.13
2022-11-03T10:19:25.383Z,2.87
2022-11-03T10:21:53.346Z,3.70
2022-11-03T10:24:21.363Z,3.90
2022-11-03T10:26:50.869Z,3.50
2022-11-03T10:29:21.960Z,3.67
2022-11-03T10:31:51.833Z,3.80
2022-11-03T10:34:34.808Z,3.53
2022-11-03T10:37:17.224Z,3.90
2022-11-03T10:39:46.033Z,2.97
2022-11-03T10:42:20.381Z,3.53
2022-11-03T10:44:52.757Z,4.23
2022-11-03T10:47:34.276Z,3.00
2022-11-03T10:50:20.153Z,3.80
2022-11-03T10:52:47.984Z,3.27
2022-11-03T10:55:19.246Z,4.27
2022-11-03T10:57:53.084Z,4.37
2022-11-03T11:00:24.038Z,4.00
2022-11-03T11:02:56.772Z,4.20
2022-11-03T11:05:25.524Z,4.00
2022-11-03T11:07:54.806Z,4.20
2022-11-03T11:10:25.077Z,3.60
2022-11-03T11:13:08.001Z,3.90
2022-11-03T11:15:40.362Z,3.30
2022-11-03T11:18:08.646Z,3.80
2022-11-03T11:20:41.422Z,4.20
2022-11-03T11:23:44.828Z,4.70
2022-11-03T11:26:40.294Z,2.97
2022-11-03T11:29:40.875Z,2.80
2022-11-03T11:32:53.236Z,3.43
2022-11-03T11:36:06.648Z,2.30
2022-11-03T11:39:12.676Z,2.90
2022-11-03T11:42:15.185Z,3.20
2022-11-03T11:45:07.278Z,2.43
2022-11-03T11:47:49.209Z,2.40
2022-11-03T11:50:27.829Z,3.37
2022-11-03T11:53:06.209Z,3.00
2022-11-03T11:55:44.012Z,3.33
2022-11-03T11:58:41.041Z,2.80
2022-11-03T12:01:23.103Z,2.70
2022-11-03T12:03:52.959Z,2.90
2022-11-03T12:06:34.419Z,3.20
2022-11-03T12:09:07.129Z,2.87
2022-11-03T12:11:48.290Z,2.60
2022-11-03T12:14:27.589Z,3.73
2022-11-03T12:16:56.150Z,3.60
2022-11-03T12:19:37.911Z,5.23
2022-11-03T12:22:06.693Z,4.37
2022-11-03T12:24:50.245Z,6.13
2022-11-03T12:27:38.686Z,3.70
2022-11-03T12:30:08.697Z,3.17
2022-11-03T12:32:36.523Z,3.20
2022-11-03T12:35:04.522Z,4.20
2022-11-03T12:37:32.419Z,3.93
2022-11-03T12:40:00.360Z,4.27
2022-11-03T12:42:29.491Z,3.77
2022-11-03T12:44:57.344Z,4.10
2022-11-03T12:47:25.321Z,3.37
2022-11-03T12:49:53.452Z,3.80
2022-11-03T12:52:21.199Z,4.00
2022-11-03T12:54:49.120Z,4.10
2022-11-03T12:57:17.171Z,4.10
2022-11-03T12:59:46.326Z,3.73
2022-11-03T13:02:18.021Z,3.07
2022-11-03T13:04:45.816Z,3.40
2022-11-03T13:07:13.606Z,3.90
2022-11-03T13:09:41.328Z,3.80
2022-11-03T13:12:30.701Z,3.40
2022-11-03T13:15:00.908Z,4.10
2022-11-03T13:17:40.244Z,2.90
2022-11-03T13:20:17.322Z,3.03
2022-11-03T13:22:45.129Z,3.17
2022-11-03T13:25:12.952Z,3.40
2022-11-03T13:27:40.656Z,3.27
2022-11-03T13:30:10.979Z,3.70
2022-11-03T13:32:38.945Z,3.67
2022-11-03T13:35:12.502Z,4.03
2022-11-03T13:37:41.600Z,4.60
2022-11-03T13:40:29.255Z,4.70
2022-11-03T13:42:59.567Z,4.20
2022-11-03T13:45:28.879Z,4.57
2022-11-03T13:48:47.487Z,4.60
2022-11-03T13:50:45.210Z,4.07
2022-11-03T13:56:05.781Z,4.97
2022-11-03T14:01:26.581Z,5.73
2022-11-03T14:06:42.537Z,5.20
2022-11-03T14:09:10.375Z,5.67
2022-11-03T14:11:55.938Z,5.67
2022-11-03T14:14:23.844Z,4.87
2022-11-03T14:16:53.156Z,5.53
2022-11-03T14:19:21.209Z,5.67
2022-11-03T14:21:48.880Z,5.43
2022-11-03T14:24:16.873Z,4.67
2022-11-03T14:26:44.942Z,6.13
2022-11-03T14:29:12.846Z,5.20
2022-11-03T14:31:41.412Z,6.60
2022-11-03T14:34:10.675Z,5.63
2022-11-03T14:36:38.448Z,5.67
2022-11-03T14:39:09.763Z,4.93
2022-11-03T14:41:55.226Z,5.33
2022-11-03T14:44:22.921Z,6.33
2022-11-03T14:46:50.564Z,6.20
2022-11-03T14:49:19.739Z,5.87
2022-11-03T14:51:47.464Z,6.37
2022-11-03T14:54:15.247Z,5.00
2022-11-03T14:56:42.988Z,5.47
2022-11-03T14:59:11.710Z,5.13
2022-11-03T15:01:39.650Z,5.43
2022-11-03T15:04:07.934Z,5.37
2022-11-03T15:06:37.603Z,5.13
2022-11-03T15:09:05.765Z,4.90
2022-11-03T15:11:33.889Z,5.20
2022-11-03T15:14:02.412Z,4.80
2022-11-03T15:16:30.360Z,4.90
2022-11-03T15:18:59.146Z,5.30
2022-11-03T15:21:26.954Z,4.90
2022-11-03T15:26:43.954Z,5.03
2022-11-03T15:29:11.711Z,5.10
2022-11-03T15:31:44.542Z,6.67
2022-11-03T15:34:15.297Z,5.13
2022-11-03T15:36:43.115Z,5.87
2022-11-03T15:39:13.119Z,5.03
2022-11-03T15:41:40.901Z,5.20
2022-11-03T15:44:08.969Z,5.90
2022-11-03T15:46:36.894Z,4.97
2022-11-03T15:49:05.011Z,5.97
2022-11-03T15:51:32.655Z,6.30
2022-11-03T15:54:00.395Z,6.00
2022-11-03T15:56:29.590Z,6.13
2022-11-03T15:58:57.309Z,6.20
2022-11-03T16:01:37.989Z,6.43
2022-11-03T16:04:05.788Z,7.13
2022-11-03T16:07:01.701Z,6.90
2022-11-03T16:09:21.632Z,5.93
2022-11-03T16:11:50.759Z,6.10
2022-11-03T16:14:19.147Z,6.00
2022-11-03T16:16:46.868Z,5.63
2022-11-03T16:19:14.806Z,6.00
2022-11-03T16:21:42.504Z,5.53
2022-11-03T16:24:11.325Z,4.93
2022-11-03T16:26:38.985Z,6.00
2022-11-03T16:29:08.183Z,5.93
2022-11-03T16:31:35.907Z,7.13
2022-11-03T16:34:04.662Z,6.67
2022-11-03T16:36:32.371Z,6.10
2022-11-03T16:39:00.065Z,5.37
2022-11-03T16:41:27.795Z,5.83
2022-11-03T16:43:55.497Z,5.30
2022-11-03T16:46:24.528Z,4.60
2022-11-03T16:48:52.220Z,4.53
2022-11-03T16:51:19.962Z,4.97
2022-11-03T16:53:49.005Z,5.23
2022-11-03T16:56:16.654Z,4.47
2022-11-03T16:58:44.472Z,4.43
2022-11-03T17:01:12.580Z,5.30
2022-11-03T17:03:41.681Z,5.50
2022-11-03T17:06:09.592Z,5.27
2022-11-03T17:08:53.725Z,14.53
2022-11-03T17:11:35.938Z,6.53
2022-11-03T17:14:05.993Z,6.40
2022-11-03T17:16:33.855Z,5.90
2022-11-03T17:19:02.921Z,7.20
2022-11-03T17:21:30.677Z,5.23
2022-11-03T17:23:59.769Z,5.67
2022-11-03T17:26:33.205Z,7.00
2022-11-03T17:29:01.024Z,7.73
2022-11-03T17:31:28.814Z,6.20
2022-11-03T17:33:57.562Z,6.13
2022-11-03T17:36:26.595Z,5.83
2022-11-03T17:38:54.365Z,5.37
2022-11-03T17:41:22.070Z,5.70
2022-11-03T17:43:49.681Z,5.30
2022-11-03T17:46:17.572Z,5.20
2022-11-03T17:48:46.914Z,4.47
2022-11-03T17:51:14.699Z,5.63
2022-11-03T17:53:44.619Z,5.10
2022-11-03T17:56:30.069Z,4.90
2022-11-03T17:58:58.156Z,5.43
2022-11-03T18:01:28.163Z,4.90
2022-11-03T18:03:56.111Z,4.77
2022-11-03T18:06:24.020Z,4.73
2022-11-03T18:08:53.071Z,5.43
2022-11-03T18:11:45.223Z,4.50
2022-11-03T18:14:13.401Z,4.87
2022-11-03T18:16:41.706Z,4.97
2022-11-03T18:19:12.894Z,4.70
2022-11-03T18:21:40.880Z,5.43
2022-11-03T18:24:13.732Z,5.50
2022-11-03T18:26:41.560Z,5.57
2022-11-03T18:29:09.824Z,4.90
2022-11-03T18:31:41.244Z,5.43
2022-11-03T18:34:15.304Z,4.80
2022-11-03T18:36:43.284Z,5.27
2022-11-03T18:39:18.261Z,6.63
2022-11-03T18:41:46.091Z,6.63
2022-11-03T18:44:18.708Z,6.77
2022-11-03T18:46:46.565Z,6.27
2022-11-03T18:49:14.599Z,6.37
2022-11-03T18:51:47.085Z,5.43
2022-11-03T18:56:54.169Z,4.67
2022-11-03T18:59:24.877Z,5.47
2022-11-03T19:01:53.155Z,5.00
2022-11-03T19:04:21.592Z,5.13
2022-11-03T19:06:51.470Z,5.30
2022-11-03T19:09:24.648Z,5.23
2022-11-03T19:11:56.060Z,5.50
2022-11-03T19:14:27.297Z,6.60
2022-11-03T19:19:44.593Z,6.30
2022-11-03T19:22:14.658Z,6.37
2022-11-03T19:24:44.333Z,5.87
2022-11-03T19:27:16.052Z,5.80
2022-11-03T19:29:45.682Z,6.40
2022-11-03T19:32:18.689Z,6.30
2022-11-03T19:34:46.739Z,5.53
2022-11-03T19:37:15.614Z,5.00
2022-11-03T19:39:44.661Z,5.37
2022-11-03T19:42:28.645Z,5.83
2022-11-03T19:44:58.007Z,5.60
2022-11-03T19:47:31.651Z,5.47
2022-11-03T19:50:01.600Z,6.10
2022-11-03T19:52:31.313Z,6.47
2022-11-03T19:55:03.009Z,5.73
2022-11-03T19:57:30.694Z,5.33
2022-11-03T20:00:03.195Z,5.50
2022-11-03T20:02:31.664Z,5.97
2022-11-03T20:04:59.546Z,5.30
2022-11-03T20:07:31.668Z,5.00
2022-11-03T20:10:02.897Z,6.27
2022-11-03T20:12:31.812Z,5.90
2022-11-03T20:14:59.791Z,5.57
2022-11-03T20:17:27.894Z,6.13
2022-11-03T20:19:55.652Z,5.63
2022-11-03T20:22:27.963Z,5.93
2022-11-03T20:24:59.113Z,6.07
2022-11-03T20:27:28.629Z,6.00
2022-11-03T20:29:56.442Z,6.63
2022-11-03T20:32:24.232Z,6.87
2022-11-03T20:34:51.949Z,7.30
2022-11-03T20:37:21.166Z,6.17
2022-11-03T20:39:49.604Z,5.60
2022-11-03T20:42:21.108Z,5.53
2022-11-03T20:44:50.409Z,5.53
2022-11-03T20:47:18.646Z,6.13
2022-11-03T20:49:47.020Z,6.50
2022-11-03T20:52:15.793Z,5.80
2022-11-03T20:54:44.281Z,5.67
2022-11-03T20:57:13.571Z,5.30
2022-11-03T20:59:41.465Z,5.50
2022-11-03T21:02:12.882Z,6.23
2022-11-03T21:04:41.090Z,5.00
2022-11-03T21:07:12.307Z,5.10
2022-11-03T21:09:40.492Z,4.47
2022-11-03T21:12:12.552Z,4.40
2022-11-03T21:15:02.016Z,5.23
2022-11-03T21:17:48.714Z,5.17
2022-11-03T21:20:16.924Z,5.37
2022-11-03T21:22:53.640Z,6.43
2022-11-03T21:25:23.276Z,6.50
2022-11-03T21:27:51.629Z,5.90
2022-11-03T21:30:20.264Z,5.00
2022-11-03T21:32:49.692Z,6.13
2022-11-03T21:35:20.082Z,6.53
2022-11-03T21:37:48.160Z,5.90
2022-11-03T21:40:16.131Z,5.73
2022-11-03T21:43:01.264Z,6.90
2022-11-03T21:45:29.022Z,6.73
2022-11-03T21:48:16.125Z,7.00
2022-11-03T21:50:44.512Z,6.50
2022-11-03T21:53:12.823Z,5.37
2022-11-03T21:55:40.930Z,6.43
2022-11-03T21:58:09.319Z,6.50
2022-11-03T22:00:37.194Z,6.83
2022-11-03T22:03:06.586Z,6.93
2022-11-03T22:05:34.587Z,6.80
2022-11-03T22:08:02.351Z,6.83
2022-11-03T22:10:30.146Z,7.20
2022-11-03T22:12:57.849Z,6.40
2022-11-03T22:15:43.252Z,6.40
2022-11-03T22:18:12.658Z,6.60
2022-11-03T22:20:58.150Z,6.67
2022-11-03T22:23:43.520Z,6.37
2022-11-03T22:26:30.969Z,5.97
2022-11-03T22:29:16.829Z,6.07
2022-11-03T22:31:44.673Z,6.40
2022-11-03T22:34:31.782Z,6.13
2022-11-03T22:36:59.520Z,7.10
2022-11-03T22:39:45.060Z,4.77
2022-11-03T22:42:30.465Z,5.20
2022-11-03T22:45:15.701Z,5.40
2022-11-03T22:47:43.392Z,6.13
2022-11-03T22:50:12.581Z,7.43
2022-11-03T22:52:40.341Z,7.03
2022-11-03T22:55:07.582Z,7.80
2022-11-03T22:57:35.456Z,6.40
2022-11-03T23:00:05.587Z,5.60
2022-11-03T23:02:33.509Z,5.50
2022-11-03T23:05:01.309Z,4.80
2022-11-03T23:07:33.061Z,4.30
2022-11-03T23:10:04.869Z,4.00
2022-11-03T23:12:32.989Z,4.37
2022-11-03T23:15:18.031Z,3.90
2022-11-03T23:18:03.452Z,4.63
2022-11-03T23:20:48.737Z,4.13
2022-11-03T23:23:31.712Z,3.80
2022-11-03T23:25:59.487Z,4.57
2022-11-03T23:28:27.212Z,3.77
2022-11-03T23:30:54.897Z,3.30
2022-11-03T23:33:22.607Z,3.23
2022-11-03T23:35:50.349Z,3.77
2022-11-03T23:38:19.414Z,3.80
2022-11-03T23:40:47.053Z,3.53
2022-11-03T23:43:14.780Z,4.63
2022-11-03T23:45:59.924Z,3.10
2022-11-03T23:48:45.173Z,2.77
2022-11-03T23:51:13.493Z,2.20
2022-11-03T23:53:42.866Z,2.30
2022-11-03T23:56:29.206Z,2.30
2022-11-03T23:58:56.961Z,2.13
